Time,TemperatureF,DewpointF,PressureIn,WindDirection,WindDirectionDegrees,WindSpeedMPH,WindSpeedGustMPH,Humidity,HourlyPrecipIn,Conditions,Clouds,dailyrainin,SoftwareType,DateUTC
2013-03-24 00:03:00,37.0,17.0,-100.00,East,90,9.0,15.0,44,-99.99,,,-99.99,,2013-03-24 04:03:00,
2013-03-24 00:13:00,36.0,17.0,-100.00,ESE,110,8.0,18.0,45,-99.99,,,-99.99,,2013-03-24 04:13:00,
2013-03-24 00:23:00,36.0,17.0,-100.00,ESE,110,8.0,18.0,45,-99.99,,,-99.99,,2013-03-24 04:23:00,
2013-03-24 00:33:00,36.0,17.0,-100.00,ESE,115,9.0,16.0,45,-99.99,,,-99.99,,2013-03-24 04:33:00,
2013-03-24 00:43:00,36.0,17.0,-100.00,ENE,70,5.0,11.0,46,-99.99,,,-99.99,,2013-03-24 04:43:00,
2013-03-24 00:53:00,36.0,17.0,-100.00,ENE,70,5.0,11.0,46,-99.99,,,-99.99,,2013-03-24 04:53:00,
2013-03-24 01:03:00,36.0,17.0,-100.00,SE,130,6.0,11.0,46,-99.99,,,-99.99,,2013-03-24 05:03:00,
2013-03-24 01:13:00,36.0,18.0,-100.00,ESE,115,10.0,12.0,47,-99.99,,,-99.99,,2013-03-24 05:13:00,
2013-03-24 01:23:00,36.0,18.0,-100.00,ESE,115,10.0,12.0,47,-99.99,,,-99.99,,2013-03-24 05:23:00,
2013-03-24 01:32:00,36.0,18.0,-100.00,ESE,120,8.0,17.0,46,-99.99,,,-99.99,,2013-03-24 05:32:00,
2013-03-24 01:43:00,36.0,18.0,-100.00,SSE,150,7.0,13.0,47,-99.99,,,-99.99,,2013-03-24 05:43:00,
2013-03-24 01:52:00,36.0,18.0,-100.00,SSE,150,7.0,13.0,47,-99.99,,,-99.99,,2013-03-24 05:52:00,
2013-03-24 02:02:00,36.0,18.0,-100.00,East,95,5.0,10.0,47,-99.99,,,-99.99,,2013-03-24 06:02:00,
2013-03-24 02:12:00,36.0,18.0,-100.00,SE,135,2.0,12.0,47,-99.99,,,-99.99,,2013-03-24 06:12:00,
2013-03-24 02:22:00,36.0,18.0,-100.00,SE,135,2.0,12.0,47,-99.99,,,-99.99,,2013-03-24 06:22:00,
2013-03-24 02:32:00,36.0,17.0,-100.00,ESE,115,5.0,9.0,47,-99.99,,,-99.99,,2013-03-24 06:32:00,
2013-03-24 02:42:00,36.0,17.0,-100.00,SSE,155,9.0,20.0,47,-99.99,,,-99.99,,2013-03-24 06:42:00,
2013-03-24 02:52:00,36.0,17.0,-100.00,SSE,155,9.0,20.0,47,-99.99,,,-99.99,,2013-03-24 06:52:00,
2013-03-24 03:02:00,35.0,17.0,-100.00,SSW,195,1.0,5.0,48,-99.99,,,-99.99,,2013-03-24 07:02:00,
2013-03-24 03:12:00,35.0,18.0,-100.00,SSE,155,5.0,12.0,48,-99.99,,,-99.99,,2013-03-24 07:12:00,
2013-03-24 03:22:00,35.0,18.0,-100.00,SSE,155,5.0,12.0,48,-99.99,,,-99.99,,2013-03-24 07:22:00,
2013-03-24 03:32:00,35.0,17.0,-100.00,SE,130,10.0,15.0,48,-99.99,,,-99.99,,2013-03-24 07:32:00,
2013-03-24 03:42:00,35.0,17.0,-100.00,ENE,70,3.0,4.0,48,-99.99,,,-99.99,,2013-03-24 07:42:00,
2013-03-24 03:52:00,35.0,17.0,-100.00,ENE,70,3.0,4.0,48,-99.99,,,-99.99,,2013-03-24 07:52:00,
2013-03-24 04:03:00,35.0,18.0,-100.00,ESE,115,7.0,10.0,49,-99.99,,,-99.99,,2013-03-24 08:03:00,
2013-03-24 04:12:00,34.0,17.0,-100.00,East,100,4.0,5.0,50,-99.99,,,-99.99,,2013-03-24 08:12:00,
2013-03-24 04:22:00,34.0,17.0,-100.00,East,100,4.0,5.0,50,-99.99,,,-99.99,,2013-03-24 08:22:00,
2013-03-24 04:42:00,34.0,18.0,-100.00,South,185,1.0,6.0,51,-99.99,,,-99.99,,2013-03-24 08:42:00,
2013-03-24 04:52:00,34.0,18.0,-100.00,South,185,1.0,6.0,51,-99.99,,,-99.99,,2013-03-24 08:52:00,
2013-03-24 05:02:00,32.0,17.0,-100.00,NNE,15,2.0,6.0,53,-99.99,,,-99.99,,2013-03-24 09:02:00,
2013-03-24 05:12:00,31.0,17.0,-100.00,NE,40,2.0,4.0,56,-99.99,,,-99.99,,2013-03-24 09:12:00,
2013-03-24 05:22:00,31.0,17.0,-100.00,NE,40,2.0,4.0,56,-99.99,,,-99.99,,2013-03-24 09:22:00,
2013-03-24 05:33:00,29.0,17.0,-100.00,NNE,15,1.0,2.0,60,-99.99,,,-99.99,,2013-03-24 09:33:00,
2013-03-24 05:42:00,29.0,18.0,-100.00,NNE,30,0.0,2.0,65,-99.99,,,-99.99,,2013-03-24 09:42:00,
2013-03-24 05:52:00,29.0,18.0,-100.00,NNE,30,0.0,2.0,65,-99.99,,,-99.99,,2013-03-24 09:52:00,
2013-03-24 06:03:00,28.0,19.0,-100.00,NNE,30,0.0,0.0,68,-99.99,,,-99.99,,2013-03-24 10:03:00,
2013-03-24 06:13:00,27.0,19.0,-100.00,NE,45,2.0,3.0,71,-99.99,,,-99.99,,2013-03-24 10:13:00,
2013-03-24 06:23:00,27.0,19.0,-100.00,NE,45,2.0,3.0,71,-99.99,,,-99.99,,2013-03-24 10:23:00,
2013-03-24 06:33:00,27.0,19.0,-100.00,NNE,20,3.0,3.0,73,-99.99,,,-99.99,,2013-03-24 10:33:00,
2013-03-24 06:42:00,27.0,20.0,-100.00,NNE,15,2.0,3.0,75,-99.99,,,-99.99,,2013-03-24 10:42:00,
2013-03-24 06:52:00,27.0,20.0,-100.00,NNE,15,2.0,3.0,75,-99.99,,,-99.99,,2013-03-24 10:52:00,
2013-03-24 07:03:00,26.0,20.0,-100.00,NNE,25,3.0,4.0,77,-99.99,,,-99.99,,2013-03-24 11:03:00,
2013-03-24 07:12:00,26.0,20.0,-100.00,NE,35,1.0,2.0,78,-99.99,,,-99.99,,2013-03-24 11:12:00,
2013-03-24 07:22:00,26.0,20.0,-100.00,NE,35,1.0,2.0,78,-99.99,,,-99.99,,2013-03-24 11:22:00,
2013-03-24 07:33:00,26.0,20.0,-100.00,North,10,1.0,3.0,79,-99.99,,,-99.99,,2013-03-24 11:33:00,
2013-03-24 07:42:00,26.0,21.0,-100.00,East,90,1.0,3.0,81,-99.99,,,-99.99,,2013-03-24 11:42:00,
2013-03-24 07:52:00,26.0,21.0,-100.00,East,90,1.0,3.0,81,-99.99,,,-99.99,,2013-03-24 11:52:00,
2013-03-24 08:03:00,26.0,21.0,-100.00,NNW,345,1.0,2.0,81,-99.99,,,-99.99,,2013-03-24 12:03:00,
2013-03-24 08:13:00,27.0,22.0,-100.00,NNE,30,1.0,2.0,83,-99.99,,,-99.99,,2013-03-24 12:13:00,
2013-03-24 08:23:00,27.0,22.0,-100.00,NNE,30,1.0,2.0,83,-99.99,,,-99.99,,2013-03-24 12:23:00,
2013-03-24 08:32:00,28.0,23.0,-100.00,North,0,1.0,2.0,82,-99.99,,,-99.99,,2013-03-24 12:32:00,
2013-03-24 08:42:00,31.0,25.0,-100.00,NNW,340,1.0,2.0,80,-99.99,,,-99.99,,2013-03-24 12:42:00,
2013-03-24 08:52:00,31.0,25.0,-100.00,NNW,340,1.0,2.0,80,-99.99,,,-99.99,,2013-03-24 12:52:00,
2013-03-24 09:02:00,33.0,26.0,-100.00,East,85,5.0,7.0,74,-99.99,,,-99.99,,2013-03-24 13:02:00,
2013-03-24 09:13:00,36.0,24.0,-100.00,East,100,8.0,11.0,60,-99.99,,,-99.99,,2013-03-24 13:13:00,
2013-03-24 09:23:00,36.0,24.0,-100.00,East,100,8.0,11.0,60,-99.99,,,-99.99,,2013-03-24 13:23:00,
2013-03-24 09:32:00,37.0,21.0,-100.00,ESE,110,11.0,16.0,52,-99.99,,,-99.99,,2013-03-24 13:32:00,
2013-03-24 09:42:00,38.0,21.0,-100.00,ESE,115,10.0,14.0,49,-99.99,,,-99.99,,2013-03-24 13:42:00,
2013-03-24 09:52:00,38.0,21.0,-100.00,ESE,115,10.0,14.0,49,-99.99,,,-99.99,,2013-03-24 13:52:00,
2013-03-24 10:02:00,40.0,21.0,-100.00,East,90,12.0,19.0,47,-99.99,,,-99.99,,2013-03-24 14:02:00,
2013-03-24 10:13:00,40.0,19.0,-100.00,East,95,15.0,21.0,44,-99.99,,,-99.99,,2013-03-24 14:13:00,
2013-03-24 10:22:00,40.0,19.0,-100.00,East,95,15.0,21.0,44,-99.99,,,-99.99,,2013-03-24 14:22:00,
2013-03-24 10:33:00,41.0,20.0,-100.00,East,90,9.0,16.0,42,-99.99,,,-99.99,,2013-03-24 14:33:00,
2013-03-24 10:42:00,40.0,18.0,-100.00,SSE,150,11.0,18.0,41,-99.99,,,-99.99,,2013-03-24 14:42:00,
2013-03-24 10:52:00,40.0,18.0,-100.00,SSE,150,11.0,18.0,41,-99.99,,,-99.99,,2013-03-24 14:52:00,
2013-03-24 11:02:00,42.0,19.0,-100.00,SE,145,4.0,13.0,40,-99.99,,,-99.99,,2013-03-24 15:02:00,
2013-03-24 11:13:00,41.0,18.0,-100.00,SE,130,9.0,19.0,40,-99.99,,,-99.99,,2013-03-24 15:13:00,
2013-03-24 11:22:00,41.0,18.0,-100.00,SE,130,9.0,19.0,40,-99.99,,,-99.99,,2013-03-24 15:22:00,
2013-03-24 11:33:00,41.0,18.0,-100.00,SE,140,8.0,13.0,39,-99.99,,,-99.99,,2013-03-24 15:33:00,
2013-03-24 11:43:00,44.0,20.0,-100.00,East,95,11.0,15.0,38,-99.99,,,-99.99,,2013-03-24 15:43:00,
2013-03-24 11:53:00,44.0,20.0,-100.00,East,95,11.0,15.0,38,-99.99,,,-99.99,,2013-03-24 15:53:00,
2013-03-24 12:03:00,42.0,18.0,-100.00,SSE,150,10.0,19.0,38,-99.99,,,-99.99,,2013-03-24 16:03:00,
2013-03-24 12:13:00,44.0,19.0,-100.00,South,175,7.0,13.0,36,-99.99,,,-99.99,,2013-03-24 16:13:00,
2013-03-24 12:23:00,44.0,19.0,-100.00,South,175,7.0,13.0,36,-99.99,,,-99.99,,2013-03-24 16:23:00,
2013-03-24 12:33:00,44.0,20.0,-100.00,SSE,160,5.0,15.0,37,-99.99,,,-99.99,,2013-03-24 16:33:00,
2013-03-24 12:43:00,45.0,19.0,-100.00,ESE,115,10.0,17.0,35,-99.99,,,-99.99,,2013-03-24 16:43:00,
2013-03-24 12:52:00,45.0,19.0,-100.00,ESE,115,10.0,17.0,35,-99.99,,,-99.99,,2013-03-24 16:52:00,
2013-03-24 13:03:00,46.0,19.0,-100.00,ESE,110,9.0,15.0,34,-99.99,,,-99.99,,2013-03-24 17:03:00,
2013-03-24 13:12:00,46.0,19.0,-100.00,East,90,6.0,14.0,34,-99.99,,,-99.99,,2013-03-24 17:12:00,
2013-03-24 13:23:00,46.0,19.0,-100.00,East,90,6.0,14.0,34,-99.99,,,-99.99,,2013-03-24 17:23:00,
2013-03-24 13:33:00,46.0,19.0,-100.00,SSE,165,5.0,11.0,33,-99.99,,,-99.99,,2013-03-24 17:33:00,
2013-03-24 13:42:00,47.0,19.0,-100.00,SE,135,7.0,11.0,32,-99.99,,,-99.99,,2013-03-24 17:42:00,
2013-03-24 13:52:00,47.0,19.0,-100.00,SE,135,7.0,11.0,32,-99.99,,,-99.99,,2013-03-24 17:52:00,
2013-03-24 14:03:00,47.0,18.0,-100.00,SSW,195,2.0,11.0,32,-99.99,,,-99.99,,2013-03-24 18:03:00,
2013-03-24 14:12:00,48.0,19.0,-100.00,ESE,105,3.0,9.0,31,-99.99,,,-99.99,,2013-03-24 18:12:00,
2013-03-24 14:22:00,48.0,19.0,-100.00,ESE,105,3.0,9.0,31,-99.99,,,-99.99,,2013-03-24 18:22:00,
2013-03-24 14:33:00,48.0,18.0,-100.00,South,170,6.0,14.0,30,-99.99,,,-99.99,,2013-03-24 18:33:00,
2013-03-24 14:43:00,46.0,18.0,-100.00,SW,220,7.0,12.0,32,-99.99,,,-99.99,,2013-03-24 18:43:00,
2013-03-24 14:52:00,46.0,18.0,-100.00,SW,220,7.0,12.0,32,-99.99,,,-99.99,,2013-03-24 18:52:00,
2013-03-24 15:03:00,48.0,19.0,-100.00,SSE,155,5.0,13.0,31,-99.99,,,-99.99,,2013-03-24 19:03:00,
2013-03-24 15:12:00,48.0,19.0,-100.00,East,100,2.0,14.0,31,-99.99,,,-99.99,,2013-03-24 19:12:00,
2013-03-24 15:23:00,48.0,19.0,-100.00,East,100,2.0,14.0,31,-99.99,,,-99.99,,2013-03-24 19:23:00,
2013-03-24 15:32:00,48.0,19.0,-100.00,West,260,1.0,4.0,31,-99.99,,,-99.99,,2013-03-24 19:32:00,
2013-03-24 15:43:00,49.0,18.0,-100.00,SE,130,4.0,9.0,29,-99.99,,,-99.99,,2013-03-24 19:43:00,
2013-03-24 15:52:00,49.0,18.0,-100.00,SE,130,4.0,9.0,29,-99.99,,,-99.99,,2013-03-24 19:52:00,
2013-03-24 16:12:00,47.0,17.0,-100.00,South,180,5.0,13.0,30,-99.99,,,-99.99,,2013-03-24 20:12:00,
2013-03-24 16:22:00,47.0,17.0,-100.00,South,180,5.0,13.0,30,-99.99,,,-99.99,,2013-03-24 20:22:00,
2013-03-24 16:32:00,48.0,19.0,-100.00,SSE,165,7.0,11.0,31,-99.99,,,-99.99,,2013-03-24 20:32:00,
2013-03-24 16:43:00,47.0,18.0,-100.00,SW,215,5.0,13.0,31,-99.99,,,-99.99,,2013-03-24 20:43:00,
2013-03-24 16:53:00,47.0,18.0,-100.00,SW,215,5.0,13.0,31,-99.99,,,-99.99,,2013-03-24 20:53:00,
2013-03-24 17:03:00,48.0,19.0,-100.00,SSW,205,7.0,14.0,31,-99.99,,,-99.99,,2013-03-24 21:03:00,
2013-03-24 17:12:00,48.0,19.0,-100.00,SW,220,5.0,9.0,32,-99.99,,,-99.99,,2013-03-24 21:12:00,
2013-03-24 17:23:00,48.0,19.0,-100.00,SW,220,5.0,9.0,32,-99.99,,,-99.99,,2013-03-24 21:23:00,
2013-03-24 17:33:00,47.0,19.0,-100.00,South,185,7.0,12.0,32,-99.99,,,-99.99,,2013-03-24 21:33:00,
2013-03-24 17:43:00,47.0,19.0,-100.00,WSW,240,6.0,11.0,33,-99.99,,,-99.99,,2013-03-24 21:43:00,
2013-03-24 17:53:00,47.0,19.0,-100.00,WSW,240,6.0,11.0,33,-99.99,,,-99.99,,2013-03-24 21:53:00,
2013-03-24 18:03:00,46.0,19.0,-100.00,South,175,7.0,13.0,33,-99.99,,,-99.99,,2013-03-24 22:03:00,
2013-03-24 18:13:00,46.0,19.0,-100.00,SW,235,7.0,11.0,33,-99.99,,,-99.99,,2013-03-24 22:13:00,
2013-03-24 18:23:00,46.0,19.0,-100.00,SW,235,7.0,11.0,33,-99.99,,,-99.99,,2013-03-24 22:23:00,
2013-03-24 18:33:00,46.0,19.0,-100.00,SW,235,4.0,8.0,34,-99.99,,,-99.99,,2013-03-24 22:33:00,
2013-03-24 18:43:00,46.0,19.0,-100.00,SW,220,3.0,6.0,34,-99.99,,,-99.99,,2013-03-24 22:43:00,
2013-03-24 18:52:00,46.0,19.0,-100.00,SW,220,3.0,6.0,34,-99.99,,,-99.99,,2013-03-24 22:52:00,
2013-03-24 19:03:00,45.0,19.0,-100.00,SSW,210,5.0,8.0,35,-99.99,,,-99.99,,2013-03-24 23:03:00,
2013-03-24 19:12:00,45.0,19.0,-100.00,SSW,200,5.0,8.0,35,-99.99,,,-99.99,,2013-03-24 23:12:00,
2013-03-24 19:23:00,45.0,19.0,-100.00,SSW,200,5.0,8.0,35,-99.99,,,-99.99,,2013-03-24 23:23:00,
2013-03-24 19:32:00,45.0,19.0,-100.00,South,185,3.0,6.0,36,-99.99,,,-99.99,,2013-03-24 23:32:00,
2013-03-24 19:42:00,44.0,19.0,-100.00,SW,230,2.0,5.0,36,-99.99,,,-99.99,,2013-03-24 23:42:00,
2013-03-24 19:52:00,44.0,19.0,-100.00,SW,230,2.0,5.0,36,-99.99,,,-99.99,,2013-03-24 23:52:00,
2013-03-24 20:02:00,44.0,19.0,-100.00,SSW,200,2.0,3.0,37,-99.99,,,-99.99,,2013-03-25 00:02:00,
2013-03-24 20:12:00,44.0,19.0,-100.00,SW,220,1.0,5.0,37,-99.99,,,-99.99,,2013-03-25 00:12:00,
2013-03-24 20:23:00,44.0,19.0,-100.00,SW,220,1.0,5.0,37,-99.99,,,-99.99,,2013-03-25 00:23:00,
2013-03-24 20:33:00,44.0,20.0,-100.00,SSW,200,1.0,3.0,38,-99.99,,,-99.99,,2013-03-25 00:33:00,
2013-03-24 20:43:00,42.0,20.0,-100.00,South,175,2.0,5.0,40,-99.99,,,-99.99,,2013-03-25 00:43:00,
2013-03-24 20:52:00,42.0,20.0,-100.00,South,175,2.0,5.0,40,-99.99,,,-99.99,,2013-03-25 00:52:00,
2013-03-24 21:02:00,42.0,20.0,-100.00,ESE,115,1.0,3.0,42,-99.99,,,-99.99,,2013-03-25 01:02:00,
2013-03-24 21:12:00,41.0,22.0,-100.00,NNE,15,0.0,2.0,46,-99.99,,,-99.99,,2013-03-25 01:12:00,
2013-03-24 21:22:00,41.0,22.0,-100.00,NNE,15,0.0,2.0,46,-99.99,,,-99.99,,2013-03-25 01:22:00,
2013-03-24 21:32:00,41.0,22.0,-100.00,SSW,205,2.0,3.0,47,-99.99,,,-99.99,,2013-03-25 01:32:00,
2013-03-24 21:42:00,40.0,22.0,-100.00,WSW,255,2.0,4.0,48,-99.99,,,-99.99,,2013-03-25 01:42:00,
2013-03-24 21:52:00,40.0,22.0,-100.00,WSW,255,2.0,4.0,48,-99.99,,,-99.99,,2013-03-25 01:52:00,
2013-03-24 22:02:00,40.0,23.0,-100.00,North,350,1.0,2.0,52,-99.99,,,-99.99,,2013-03-25 02:02:00,
2013-03-24 22:12:00,39.0,25.0,-100.00,SSW,210,3.0,5.0,56,-99.99,,,-99.99,,2013-03-25 02:12:00,
2013-03-24 22:23:00,39.0,25.0,-100.00,SSW,210,3.0,5.0,56,-99.99,,,-99.99,,2013-03-25 02:23:00,
2013-03-24 22:33:00,40.0,25.0,-100.00,WSW,245,5.0,10.0,53,-99.99,,,-99.99,,2013-03-25 02:33:00,
2013-03-24 22:43:00,42.0,24.0,-100.00,West,270,6.0,10.0,48,-99.99,,,-99.99,,2013-03-25 02:43:00,
2013-03-24 22:52:00,42.0,24.0,-100.00,West,270,6.0,10.0,48,-99.99,,,-99.99,,2013-03-25 02:52:00,
2013-03-24 23:03:00,42.0,23.0,-100.00,WSW,255,6.0,11.0,46,-99.99,,,-99.99,,2013-03-25 03:03:00,
2013-03-24 23:13:00,42.0,23.0,-100.00,NW,320,10.0,14.0,47,-99.99,,,-99.99,,2013-03-25 03:13:00,
2013-03-24 23:23:00,42.0,23.0,-100.00,NW,320,10.0,14.0,47,-99.99,,,-99.99,,2013-03-25 03:23:00,
2013-03-24 23:34:00,40.0,24.0,-100.00,NNW,330,5.0,10.0,51,-99.99,,,-99.99,,2013-03-25 03:34:00,
2013-03-24 23:43:00,40.0,24.0,-100.00,WNW,290,5.0,12.0,53,-99.99,,,-99.99,,2013-03-25 03:43:00,
2013-03-24 23:53:00,40.0,24.0,-100.00,WNW,290,5.0,12.0,53,-99.99,,,-99.99,,2013-03-25 03:53:00,